createdAt,value
2022-12-25T00:00:06.253Z,9.90
2022-12-25T00:02:33.209Z,9.90
2022-12-25T00:05:00.171Z,9.75
2022-12-25T00:07:26.981Z,9.00
2022-12-25T00:09:53.790Z,8.90
2022-12-25T00:12:22.522Z,9.25
2022-12-25T00:14:51.046Z,9.02
2022-12-25T00:17:17.908Z,9.40
2022-12-25T00:19:44.788Z,11.18
2022-12-25T00:22:11.625Z,9.80
2022-12-25T00:24:38.703Z,10.85
2022-12-25T00:27:05.609Z,9.93
2022-12-25T00:29:32.645Z,9.63
2022-12-25T00:32:01.035Z,10.07
2022-12-25T00:34:27.918Z,9.52
2022-12-25T00:36:54.789Z,10.15
2022-12-25T00:39:22.243Z,9.80
2022-12-25T00:42:07.922Z,10.43
2022-12-25T00:44:35.258Z,9.57
2022-12-25T00:47:03.908Z,9.73
2022-12-25T00:49:30.835Z,9.73
2022-12-25T00:51:57.718Z,10.43
2022-12-25T00:54:24.672Z,10.18
2022-12-25T00:56:51.580Z,10.27
2022-12-25T00:59:18.664Z,10.50
2022-12-25T01:01:45.792Z,10.65
2022-12-25T01:04:14.186Z,11.13
2022-12-25T01:06:41.068Z,10.50
2022-12-25T01:09:26.836Z,11.00
2022-12-25T01:11:53.781Z,11.68
2022-12-25T01:14:20.666Z,10.52
2022-12-25T01:16:47.579Z,12.02
2022-12-25T01:19:15.941Z,10.73
2022-12-25T01:21:42.833Z,10.93
2022-12-25T01:24:09.817Z,12.48
2022-12-25T01:26:36.776Z,12.85
2022-12-25T01:29:04.030Z,12.98
2022-12-25T01:31:31.049Z,11.23
2022-12-25T01:33:58.078Z,13.40
2022-12-25T01:36:26.785Z,13.20
2022-12-25T01:38:54.494Z,13.10
2022-12-25T01:41:23.896Z,14.32
2022-12-25T01:44:01.453Z,13.23
2022-12-25T01:46:28.853Z,15.15
2022-12-25T01:48:58.065Z,15.35
2022-12-25T01:51:30.177Z,14.27
2022-12-25T01:53:59.691Z,16.02
2022-12-25T01:56:28.997Z,15.35
2022-12-25T01:58:57.396Z,16.33
2022-12-25T02:01:24.636Z,16.58
2022-12-25T02:03:55.776Z,16.55
2022-12-25T02:06:22.759Z,17.80
2022-12-25T02:08:51.613Z,17.58
2022-12-25T02:11:37.367Z,18.40
2022-12-25T02:14:04.355Z,17.27
2022-12-25T02:16:35.604Z,17.55
2022-12-25T02:19:48.967Z,19.42
2022-12-25T02:22:28.556Z,16.37
2022-12-25T02:25:11.024Z,18.15
2022-12-25T02:28:00.421Z,17.30
2022-12-25T02:30:33.996Z,18.13
2022-12-25T02:33:24.222Z,18.20
2022-12-25T02:35:55.711Z,19.30
2022-12-25T02:38:31.530Z,17.58
2022-12-25T02:41:02.367Z,19.27
2022-12-25T02:43:52.113Z,18.10
2022-12-25T02:46:42.260Z,17.88
2022-12-25T02:49:31.465Z,17.50
2022-12-25T02:52:21.759Z,17.25
2022-12-25T02:55:13.107Z,17.80
2022-12-25T02:58:03.009Z,17.88
2022-12-25T03:00:53.497Z,16.60
2022-12-25T03:03:41.851Z,14.57
2022-12-25T03:06:29.187Z,15.05
2022-12-25T03:09:19.268Z,14.77
2022-12-25T03:11:52.532Z,14.55
2022-12-25T03:14:37.634Z,13.35
2022-12-25T03:17:06.298Z,13.07
2022-12-25T03:19:53.606Z,12.02
2022-12-25T03:22:43.626Z,11.63
2022-12-25T03:25:29.255Z,11.73
2022-12-25T03:27:58.026Z,11.93
2022-12-25T03:30:49.766Z,9.98
2022-12-25T03:33:44.477Z,10.70
2022-12-25T03:36:18.067Z,9.90
2022-12-25T03:38:52.131Z,10.35
2022-12-25T03:41:44.816Z,9.30
2022-12-25T03:44:31.071Z,9.82
2022-12-25T03:47:26.239Z,9.38
2022-12-25T03:50:20.150Z,8.07
2022-12-25T03:53:06.982Z,8.50
2022-12-25T03:55:53.029Z,7.68
2022-12-25T03:58:40.309Z,7.13
2022-12-25T04:01:26.077Z,6.95
2022-12-25T04:04:11.798Z,7.75
2022-12-25T04:06:59.471Z,7.28
2022-12-25T04:09:45.113Z,7.18
2022-12-25T04:12:30.887Z,7.10
2022-12-25T04:15:16.075Z,7.18
2022-12-25T04:18:01.454Z,7.47
2022-12-25T04:20:47.175Z,7.65
2022-12-25T04:23:33.920Z,7.35
2022-12-25T04:26:19.086Z,6.40
2022-12-25T04:29:04.523Z,5.82
2022-12-25T04:31:49.791Z,5.88
2022-12-25T04:34:45.913Z,6.07
2022-12-25T04:37:12.797Z,5.50
2022-12-25T04:39:41.065Z,6.10
2022-12-25T04:42:07.977Z,5.60
2022-12-25T04:44:34.767Z,5.97
2022-12-25T04:47:04.580Z,5.78
2022-12-25T04:49:36.081Z,5.72
2022-12-25T04:52:03.121Z,4.90
2022-12-25T04:54:29.921Z,5.60
2022-12-25T04:56:58.168Z,4.95
2022-12-25T04:59:25.037Z,5.07
2022-12-25T05:01:51.969Z,5.40
2022-12-25T05:04:18.922Z,5.50
2022-12-25T05:06:45.845Z,5.30
2022-12-25T05:09:12.727Z,5.20
2022-12-25T05:11:39.625Z,5.28
2022-12-25T05:14:08.006Z,5.30
2022-12-25T05:16:35.044Z,5.78
2022-12-25T05:19:01.880Z,6.05
2022-12-25T05:21:28.771Z,5.47
2022-12-25T05:23:55.646Z,6.15
2022-12-25T05:26:24.781Z,5.80
2022-12-25T05:28:51.714Z,6.18
2022-12-25T05:31:20.433Z,5.82
2022-12-25T05:33:49.785Z,6.28
2022-12-25T05:36:16.672Z,6.05
2022-12-25T05:38:43.600Z,5.93
2022-12-25T05:41:10.471Z,6.88
2022-12-25T05:43:37.344Z,5.93
2022-12-25T05:46:06.484Z,6.30
2022-12-25T05:48:36.836Z,7.57
2022-12-25T05:51:05.344Z,6.07
2022-12-25T05:53:32.328Z,6.97
2022-12-25T05:56:01.231Z,6.88
2022-12-25T05:58:28.395Z,6.57
2022-12-25T06:00:55.394Z,7.38
2022-12-25T06:03:22.580Z,8.18
2022-12-25T06:05:51.184Z,7.75
2022-12-25T06:08:18.066Z,7.93
2022-12-25T06:10:45.176Z,8.05
2022-12-25T06:13:12.126Z,8.15
2022-12-25T06:15:40.500Z,7.93
2022-12-25T06:18:07.475Z,8.40
2022-12-25T06:20:34.488Z,7.70
2022-12-25T06:23:03.023Z,8.40
2022-12-25T06:25:29.927Z,7.38
2022-12-25T06:27:56.844Z,8.05
2022-12-25T06:30:23.638Z,8.73
2022-12-25T06:32:50.543Z,8.32
2022-12-25T06:35:17.525Z,8.27
2022-12-25T06:37:44.406Z,9.60
2022-12-25T06:40:13.312Z,9.07
2022-12-25T06:42:40.165Z,8.48
2022-12-25T06:45:08.086Z,8.43
2022-12-25T06:47:35.019Z,9.52
2022-12-25T06:50:02.206Z,9.07
2022-12-25T06:52:29.142Z,10.10
2022-12-25T06:54:55.993Z,8.30
2022-12-25T06:57:24.274Z,9.80
2022-12-25T06:59:55.071Z,9.50
2022-12-25T07:02:24.797Z,8.80
2022-12-25T07:04:52.693Z,9.00
2022-12-25T07:07:20.777Z,8.85
2022-12-25T07:09:47.629Z,9.20
2022-12-25T07:12:17.691Z,9.98
2022-12-25T07:14:49.076Z,8.95
2022-12-25T07:17:16.234Z,9.57
2022-12-25T07:19:45.411Z,8.95
2022-12-25T07:22:12.661Z,8.80
2022-12-25T07:24:39.564Z,9.85
2022-12-25T07:27:06.424Z,10.55
2022-12-25T07:29:33.340Z,10.73
2022-12-25T07:32:01.866Z,9.70
2022-12-25T07:34:28.821Z,10.20
2022-12-25T07:36:55.690Z,10.35
2022-12-25T07:39:23.750Z,9.95
2022-12-25T07:41:51.415Z,11.02
2022-12-25T07:44:18.493Z,10.43
2022-12-25T07:46:45.591Z,10.45
2022-12-25T07:49:13.819Z,11.57
2022-12-25T07:51:40.815Z,11.90
2022-12-25T07:54:07.805Z,11.65
2022-12-25T07:56:34.879Z,12.70
2022-12-25T07:59:01.904Z,12.52
2022-12-25T08:01:29.732Z,12.32
2022-12-25T08:03:59.131Z,12.65
2022-12-25T08:06:33.171Z,12.80
2022-12-25T08:09:05.111Z,14.05
2022-12-25T08:11:32.023Z,13.65
2022-12-25T08:13:58.882Z,12.88
2022-12-25T08:16:25.805Z,12.40
2022-12-25T08:18:54.001Z,12.55
2022-12-25T08:21:20.955Z,13.20
2022-12-25T08:23:49.236Z,13.10
2022-12-25T08:26:18.000Z,14.82
2022-12-25T08:28:45.120Z,13.95
2022-12-25T08:31:15.694Z,15.15
2022-12-25T08:33:43.523Z,14.25
2022-12-25T08:36:11.796Z,14.93
2022-12-25T08:38:39.445Z,14.27
2022-12-25T08:41:08.346Z,14.80
2022-12-25T08:43:35.254Z,14.95
2022-12-25T08:46:02.191Z,15.70
2022-12-25T08:48:29.091Z,15.77
2022-12-25T08:50:56.269Z,14.98
2022-12-25T08:53:23.719Z,15.15
2022-12-25T08:55:57.281Z,14.70
2022-12-25T08:58:25.675Z,14.80
2022-12-25T09:00:52.611Z,15.07
2022-12-25T09:03:19.704Z,15.40
2022-12-25T09:05:46.941Z,14.32
2022-12-25T09:08:13.833Z,14.85
2022-12-25T09:10:41.765Z,16.50
2022-12-25T09:13:08.674Z,15.52
2022-12-25T09:15:37.943Z,14.95
2022-12-25T09:18:05.217Z,14.23
2022-12-25T09:20:32.356Z,14.40
2022-12-25T09:22:59.308Z,15.98
2022-12-25T09:25:26.198Z,15.15
2022-12-25T09:27:53.141Z,15.00
2022-12-25T09:30:20.185Z,14.00
2022-12-25T09:32:48.415Z,16.77
2022-12-25T09:35:17.596Z,14.77
2022-12-25T09:37:44.507Z,14.52
2022-12-25T09:40:15.434Z,14.27
2022-12-25T09:42:44.087Z,15.63
2022-12-25T09:45:14.933Z,14.98
2022-12-25T09:47:45.446Z,14.57
2022-12-25T09:50:17.349Z,14.40
2022-12-25T09:52:50.252Z,15.55
2022-12-25T09:55:21.129Z,14.97
2022-12-25T09:57:51.670Z,15.50
2022-12-25T10:00:21.688Z,14.43
2022-12-25T10:03:06.744Z,13.55
2022-12-25T10:05:50.908Z,14.07
2022-12-25T10:08:32.242Z,14.55
2022-12-25T10:11:07.177Z,13.90
2022-12-25T10:13:57.437Z,13.50
2022-12-25T10:16:34.496Z,13.65
2022-12-25T10:19:27.817Z,13.27
2022-12-25T10:21:58.408Z,15.07
2022-12-25T10:24:33.880Z,12.77
2022-12-25T10:27:04.764Z,13.27
2022-12-25T10:29:34.855Z,13.93
2022-12-25T10:32:01.869Z,12.95
2022-12-25T10:34:28.971Z,13.07
2022-12-25T10:36:58.942Z,12.63
2022-12-25T10:39:26.539Z,13.85
2022-12-25T10:42:31.182Z,13.57
2022-12-25T10:45:00.279Z,12.32
2022-12-25T10:47:30.371Z,13.00
2022-12-25T10:49:58.083Z,12.90
2022-12-25T10:52:28.841Z,13.55
2022-12-25T10:54:56.113Z,11.65
2022-12-25T10:57:24.812Z,13.85
2022-12-25T10:59:56.018Z,13.43
2022-12-25T11:02:26.642Z,13.32
2022-12-25T11:05:02.460Z,13.15
2022-12-25T11:07:32.100Z,13.82
2022-12-25T11:10:05.134Z,14.35
2022-12-25T11:12:36.121Z,13.23
2022-12-25T11:15:06.178Z,14.65
2022-12-25T11:17:33.154Z,15.75
2022-12-25T11:20:01.360Z,15.82
2022-12-25T11:22:31.027Z,15.75
2022-12-25T11:25:11.951Z,18.05
2022-12-25T11:27:38.807Z,15.10
2022-12-25T11:30:12.632Z,15.70
2022-12-25T11:32:48.717Z,16.30
2022-12-25T11:35:18.171Z,15.03
2022-12-25T11:37:48.464Z,14.32
2022-12-25T11:40:20.120Z,15.40
2022-12-25T11:42:50.809Z,15.13
2022-12-25T11:45:21.079Z,14.30
2022-12-25T11:47:51.860Z,15.25
2022-12-25T11:50:26.023Z,15.52
2022-12-25T11:52:54.625Z,15.73
2022-12-25T11:55:33.456Z,16.38
2022-12-25T11:58:13.890Z,16.98
2022-12-25T12:00:43.130Z,16.35
2022-12-25T12:03:25.586Z,16.85
2022-12-25T12:05:55.906Z,16.25
2022-12-25T12:08:22.789Z,17.55
2022-12-25T12:11:16.212Z,16.00
2022-12-25T12:14:11.358Z,16.42
2022-12-25T12:16:38.528Z,17.55
2022-12-25T12:19:13.518Z,15.23
2022-12-25T12:21:44.137Z,15.13
2022-12-25T12:24:14.834Z,15.48
2022-12-25T12:26:46.342Z,16.17
2022-12-25T12:29:27.022Z,15.43
2022-12-25T12:31:57.269Z,14.05
2022-12-25T12:34:27.365Z,13.27
2022-12-25T12:37:02.173Z,14.85
2022-12-25T12:39:35.662Z,13.73
2022-12-25T12:42:14.029Z,15.85
2022-12-25T12:44:41.625Z,15.60
2022-12-25T12:47:29.312Z,15.93
2022-12-25T12:49:57.742Z,14.32
2022-12-25T12:52:30.561Z,14.30
2022-12-25T12:55:01.316Z,14.15
2022-12-25T12:57:34.440Z,14.32
2022-12-25T13:00:08.672Z,13.80
2022-12-25T13:02:58.416Z,13.07
2022-12-25T13:05:36.244Z,13.55
2022-12-25T13:08:16.066Z,13.05
2022-12-25T13:10:47.474Z,12.85
2022-12-25T13:13:21.095Z,12.50
2022-12-25T13:15:50.655Z,14.05
2022-12-25T13:18:17.937Z,13.38
2022-12-25T13:20:49.681Z,11.93
2022-12-25T13:23:25.807Z,14.50
2022-12-25T13:25:54.039Z,12.18
2022-12-25T13:28:27.415Z,12.80
2022-12-25T13:31:01.146Z,11.57
2022-12-25T13:33:28.133Z,11.32
2022-12-25T13:35:56.921Z,11.52
2022-12-25T13:38:27.460Z,11.55
2022-12-25T13:41:15.139Z,11.88
2022-12-25T13:43:45.016Z,12.98
2022-12-25T13:46:13.982Z,12.80
2022-12-25T13:48:41.396Z,11.95
2022-12-25T13:51:15.050Z,12.15
2022-12-25T13:53:43.863Z,12.07
2022-12-25T13:56:15.525Z,12.27
2022-12-25T13:58:47.354Z,12.02
2022-12-25T14:01:16.455Z,12.60
2022-12-25T14:03:46.180Z,13.00
2022-12-25T14:06:21.747Z,13.00
2022-12-25T14:08:49.338Z,12.95
2022-12-25T14:11:20.591Z,14.15
2022-12-25T14:13:51.363Z,13.38
2022-12-25T14:16:20.236Z,15.88
2022-12-25T14:18:52.011Z,16.15
2022-12-25T14:21:25.575Z,13.32
2022-12-25T14:23:52.526Z,14.52
2022-12-25T14:26:22.422Z,12.85
2022-12-25T14:28:53.835Z,11.93
2022-12-25T14:31:22.061Z,12.20
2022-12-25T14:33:50.311Z,12.82
2022-12-25T14:36:18.493Z,11.93
2022-12-25T14:38:57.089Z,13.40
2022-12-25T14:41:34.179Z,13.45
2022-12-25T14:44:06.279Z,11.38
2022-12-25T14:46:34.475Z,12.57
2022-12-25T14:49:03.424Z,11.38
2022-12-25T14:51:31.706Z,12.45
2022-12-25T14:54:02.037Z,12.23
2022-12-25T14:56:38.237Z,12.07
2022-12-25T14:59:10.335Z,11.55
2022-12-25T15:01:40.087Z,13.23
2022-12-25T15:04:15.400Z,12.10
2022-12-25T15:06:53.093Z,13.32
2022-12-25T15:09:21.069Z,13.38
2022-12-25T15:11:49.193Z,13.38
2022-12-25T15:14:17.913Z,14.00
2022-12-25T15:16:48.259Z,14.52
2022-12-25T15:19:24.894Z,14.77
2022-12-25T15:21:52.785Z,15.77
2022-12-25T15:24:19.760Z,14.68
2022-12-25T15:26:46.725Z,14.77
2022-12-25T15:29:13.549Z,15.73
2022-12-25T15:31:42.230Z,16.00
2022-12-25T15:34:17.686Z,18.42
2022-12-25T15:36:44.512Z,18.10
2022-12-25T15:39:11.591Z,16.92
2022-12-25T15:41:57.783Z,16.88
2022-12-25T15:44:25.210Z,17.25
2022-12-25T15:46:53.580Z,17.40
2022-12-25T15:49:20.472Z,17.33
2022-12-25T15:51:48.199Z,17.98
2022-12-25T15:54:15.250Z,18.83
2022-12-25T15:56:45.055Z,17.52
2022-12-25T15:59:13.475Z,17.50
2022-12-25T16:01:43.289Z,16.88
2022-12-25T16:04:11.597Z,17.55
2022-12-25T16:06:38.659Z,16.80
2022-12-25T16:09:05.824Z,17.42
2022-12-25T16:11:32.713Z,16.92
2022-12-25T16:13:59.571Z,16.20
2022-12-25T16:16:26.444Z,16.58
2022-12-25T16:18:53.287Z,16.73
2022-12-25T16:21:23.033Z,16.20
2022-12-25T16:23:50.230Z,16.65
2022-12-25T16:26:17.324Z,18.05
2022-12-25T16:28:44.413Z,16.88
2022-12-25T16:31:11.778Z,17.58
2022-12-25T16:33:38.699Z,18.00
2022-12-25T16:36:06.071Z,17.90
2022-12-25T16:38:34.346Z,19.45
2022-12-25T16:41:01.806Z,21.85
2022-12-25T16:43:29.014Z,19.85
2022-12-25T16:45:57.327Z,19.38
2022-12-25T16:48:24.290Z,20.23
2022-12-25T16:50:51.198Z,22.50
2022-12-25T16:53:18.054Z,21.23
2022-12-25T16:55:46.233Z,19.63
2022-12-25T16:58:13.125Z,21.17
2022-12-25T17:00:44.260Z,19.10
2022-12-25T17:03:15.942Z,22.40
2022-12-25T17:05:43.087Z,20.90
2022-12-25T17:08:09.908Z,21.85
2022-12-25T17:10:38.430Z,24.00
2022-12-25T17:13:06.714Z,20.13
2022-12-25T17:15:33.543Z,22.58
2022-12-25T17:18:00.391Z,22.48
2022-12-25T17:20:27.209Z,21.77
2022-12-25T17:22:54.068Z,23.20
2022-12-25T17:25:21.077Z,23.45
2022-12-25T17:27:49.212Z,24.33
2022-12-25T17:30:17.584Z,25.35
2022-12-25T17:32:44.484Z,26.50
2022-12-25T17:35:11.304Z,25.58
2022-12-25T17:37:38.288Z,23.42
2022-12-25T17:40:06.207Z,23.35
2022-12-25T17:42:33.348Z,33.88
2022-12-25T17:45:00.194Z,38.83
2022-12-25T17:47:29.864Z,30.52
2022-12-25T17:49:56.811Z,21.85
2022-12-25T17:52:23.731Z,19.02
2022-12-25T17:54:50.639Z,20.48
2022-12-25T17:57:17.523Z,20.48
2022-12-25T17:59:44.414Z,21.17
2022-12-25T18:02:12.041Z,18.63
2022-12-25T18:04:40.351Z,20.17
2022-12-25T18:07:07.452Z,18.10
2022-12-25T18:09:34.303Z,19.92
2022-12-25T18:12:01.368Z,25.80
2022-12-25T18:14:28.230Z,27.73
2022-12-25T18:16:55.048Z,27.48
2022-12-25T18:19:21.929Z,25.88
2022-12-25T18:21:50.335Z,29.63
2022-12-25T18:24:17.233Z,28.17
2022-12-25T18:26:44.068Z,50.20
2022-12-25T18:29:10.897Z,43.95
2022-12-25T18:31:37.879Z,34.40
2022-12-25T18:34:05.217Z,30.55
2022-12-25T18:36:32.073Z,30.35
2022-12-25T18:39:00.356Z,28.40
2022-12-25T18:41:28.846Z,30.88
2022-12-25T18:43:56.144Z,33.20
2022-12-25T18:46:24.762Z,37.70
2022-12-25T18:48:52.521Z,33.13
2022-12-25T18:51:19.461Z,42.90
2022-12-25T18:53:46.584Z,41.35
2022-12-25T18:56:17.581Z,37.95
2022-12-25T18:58:45.483Z,36.60
2022-12-25T19:01:15.027Z,38.67
2022-12-25T19:03:42.077Z,30.27
2022-12-25T19:06:09.213Z,29.42
2022-12-25T19:08:36.118Z,29.05
2022-12-25T19:11:07.555Z,29.48
2022-12-25T19:13:35.933Z,28.77
2022-12-25T19:16:03.185Z,25.70
2022-12-25T19:18:30.448Z,25.55
2022-12-25T19:21:00.465Z,25.23
2022-12-25T19:23:27.331Z,26.73
2022-12-25T19:25:54.175Z,24.70
2022-12-25T19:28:21.212Z,27.13
2022-12-25T19:30:49.597Z,26.88
2022-12-25T19:33:18.067Z,28.65
2022-12-25T19:35:45.101Z,26.98
2022-12-25T19:38:11.928Z,27.27
2022-12-25T19:40:40.124Z,26.38
2022-12-25T19:43:07.241Z,27.55
2022-12-25T19:45:34.285Z,31.27
2022-12-25T19:48:02.590Z,30.17
2022-12-25T19:50:32.529Z,35.03
2022-12-25T19:52:59.465Z,37.63
2022-12-25T19:55:26.352Z,36.92
2022-12-25T19:57:55.340Z,43.15
2022-12-25T20:00:22.220Z,42.72
2022-12-25T20:02:49.172Z,44.65
2022-12-25T20:05:17.942Z,43.80
2022-12-25T20:07:44.765Z,33.40
2022-12-25T20:10:11.890Z,33.17
2022-12-25T20:12:38.714Z,31.98
2022-12-25T20:15:07.441Z,30.05
2022-12-25T20:17:34.425Z,32.30
2022-12-25T20:20:01.277Z,32.10
2022-12-25T20:22:29.550Z,30.80
2022-12-25T20:24:56.449Z,31.00
2022-12-25T20:27:23.357Z,30.08
2022-12-25T20:29:50.211Z,29.25
2022-12-25T20:32:17.188Z,30.75
2022-12-25T20:34:44.588Z,29.80
2022-12-25T20:37:11.484Z,29.67
2022-12-25T20:39:40.294Z,30.55
2022-12-25T20:42:08.006Z,28.83
2022-12-25T20:44:34.971Z,32.10
2022-12-25T20:47:03.521Z,31.13
2022-12-25T20:49:32.583Z,31.52
2022-12-25T20:52:04.759Z,26.67
2022-12-25T20:54:32.595Z,28.60
2022-12-25T20:57:00.854Z,24.92
2022-12-25T20:59:32.022Z,26.23
2022-12-25T21:02:02.321Z,25.77
2022-12-25T21:04:29.298Z,27.35
2022-12-25T21:06:56.119Z,29.55
2022-12-25T21:09:23.040Z,28.83
2022-12-25T21:11:49.877Z,29.13
2022-12-25T21:14:18.097Z,28.27
2022-12-25T21:16:45.407Z,30.02
2022-12-25T21:19:12.472Z,29.27
2022-12-25T21:21:42.769Z,28.60
2022-12-25T21:24:09.974Z,29.00
2022-12-25T21:26:40.767Z,29.23
2022-12-25T21:29:09.953Z,31.02
2022-12-25T21:31:56.835Z,31.77
2022-12-25T21:34:23.941Z,30.52
2022-12-25T21:36:50.805Z,31.60
2022-12-25T21:39:17.738Z,33.70
2022-12-25T21:41:44.574Z,30.63
2022-12-25T21:44:11.706Z,28.90
2022-12-25T21:46:40.105Z,29.48
2022-12-25T21:49:07.392Z,29.67
2022-12-25T21:51:53.053Z,29.52
2022-12-25T21:54:21.650Z,30.10
2022-12-25T21:56:49.592Z,30.92
2022-12-25T21:59:19.144Z,32.63
2022-12-25T22:01:48.283Z,33.35
2022-12-25T22:04:17.525Z,30.60
2022-12-25T22:07:03.547Z,30.35
2022-12-25T22:09:30.699Z,28.73
2022-12-25T22:12:16.233Z,29.42
2022-12-25T22:14:57.069Z,29.42
2022-12-25T22:17:46.831Z,28.75
2022-12-25T22:20:15.655Z,29.80
2022-12-25T22:22:43.005Z,27.02
2022-12-25T22:25:10.936Z,27.40
2022-12-25T22:27:39.008Z,27.70
2022-12-25T22:30:10.110Z,26.48
2022-12-25T22:32:38.427Z,27.02
2022-12-25T22:35:06.309Z,26.58
2022-12-25T22:37:33.517Z,25.33
2022-12-25T22:40:02.294Z,24.83
2022-12-25T22:42:29.277Z,22.38
2022-12-25T22:44:56.130Z,24.85
2022-12-25T22:47:23.171Z,24.27
2022-12-25T22:49:51.659Z,22.55
2022-12-25T22:52:18.961Z,22.40
2022-12-25T22:54:45.906Z,22.67
2022-12-25T22:57:13.013Z,22.48
2022-12-25T22:59:39.988Z,20.10
2022-12-25T23:02:06.983Z,22.63
2022-12-25T23:04:34.265Z,19.70
2022-12-25T23:07:02.566Z,19.02
2022-12-25T23:09:29.435Z,17.90
2022-12-25T23:11:56.748Z,17.27
2022-12-25T23:14:39.348Z,17.08
2022-12-25T23:17:07.891Z,17.58
2022-12-25T23:19:53.008Z,17.73
2022-12-25T23:22:40.122Z,15.57
2022-12-25T23:25:43.549Z,15.20
2022-12-25T23:28:10.534Z,14.43
2022-12-25T23:30:39.066Z,14.15
2022-12-25T23:33:05.924Z,15.13
2022-12-25T23:35:32.908Z,15.45
2022-12-25T23:38:01.623Z,14.13
2022-12-25T23:40:28.479Z,14.35
2022-12-25T23:42:55.452Z,13.50
2022-12-25T23:45:22.466Z,13.88
2022-12-25T23:47:49.323Z,13.55
2022-12-25T23:50:16.268Z,16.70
2022-12-25T23:52:43.756Z,14.07
2022-12-25T23:55:12.034Z,13.73
2022-12-25T23:57:38.878Z,14.18
